createdAt,value
2023-03-11T00:01:37.130Z,0.90
2023-03-11T00:04:04.554Z,0.82
2023-03-11T00:06:34.303Z,1.02
2023-03-11T00:09:01.652Z,0.98
2023-03-11T00:11:29.394Z,0.95
2023-03-11T00:13:56.741Z,0.95
2023-03-11T00:16:24.912Z,1.10
2023-03-11T00:18:52.407Z,0.98
2023-03-11T00:21:20.031Z,0.98
2023-03-11T00:23:47.519Z,1.20
2023-03-11T00:26:15.219Z,1.70
2023-03-11T00:28:42.624Z,1.33
2023-03-11T00:31:12.060Z,1.10
2023-03-11T00:33:46.192Z,1.17
2023-03-11T00:36:21.304Z,1.20
2023-03-11T00:39:00.462Z,1.15
2023-03-11T00:41:28.502Z,1.02
2023-03-11T00:43:56.036Z,0.90
2023-03-11T00:46:23.829Z,1.42
2023-03-11T00:48:51.464Z,1.20
2023-03-11T00:51:19.228Z,1.20
2023-03-11T00:54:07.140Z,1.33
2023-03-11T00:56:34.754Z,1.27
2023-03-11T00:59:02.170Z,1.10
2023-03-11T01:01:55.214Z,1.35
2023-03-11T01:04:35.513Z,1.02
2023-03-11T01:07:03.289Z,1.50
2023-03-11T01:09:30.617Z,1.13
2023-03-11T01:12:13.630Z,1.58
2023-03-11T01:14:41.037Z,1.80
2023-03-11T01:17:08.754Z,0.98
2023-03-11T01:19:36.139Z,0.90
2023-03-11T01:22:03.909Z,0.88
2023-03-11T01:24:31.295Z,1.00
2023-03-11T01:26:58.901Z,0.70
2023-03-11T01:29:26.264Z,0.95
2023-03-11T01:31:55.001Z,1.40
2023-03-11T01:34:22.395Z,1.08
2023-03-11T01:41:00.090Z,1.02
2023-03-11T01:43:36.685Z,0.80
2023-03-11T01:46:19.162Z,0.77
2023-03-11T01:52:42.179Z,0.95
2023-03-11T01:55:10.300Z,0.70
2023-03-11T01:57:38.233Z,0.88
2023-03-11T02:00:07.778Z,0.95
2023-03-11T02:02:36.734Z,0.80
2023-03-11T02:05:05.224Z,0.90
2023-03-11T02:07:32.825Z,1.08
2023-03-11T02:10:00.463Z,0.93
2023-03-11T02:12:30.041Z,1.27
2023-03-11T02:14:57.785Z,1.10
2023-03-11T02:17:25.141Z,0.93
2023-03-11T02:19:55.569Z,1.08
2023-03-11T02:22:23.307Z,1.00
2023-03-11T02:25:09.036Z,0.80
2023-03-11T02:27:38.514Z,1.40
2023-03-11T02:30:06.653Z,1.38
2023-03-11T02:32:34.508Z,1.20
2023-03-11T02:35:02.273Z,1.80
2023-03-11T02:37:29.701Z,1.67
2023-03-11T02:40:17.268Z,3.60
2023-03-11T02:42:44.738Z,1.23
2023-03-11T02:45:14.194Z,1.50
2023-03-11T02:51:02.986Z,1.20
2023-03-11T02:53:31.984Z,1.50
2023-03-11T02:55:59.624Z,1.30
2023-03-11T02:58:27.183Z,1.35
2023-03-11T03:00:54.880Z,1.38
2023-03-11T03:03:22.239Z,1.25
2023-03-11T03:05:50.036Z,1.00
2023-03-11T03:08:17.373Z,1.20
2023-03-11T03:10:45.101Z,1.42
2023-03-11T03:13:12.499Z,1.58
2023-03-11T03:15:40.175Z,0.70
2023-03-11T03:18:07.663Z,0.20
2023-03-11T03:21:03.109Z,0.30
2023-03-11T03:23:30.428Z,0.40
2023-03-11T03:25:58.088Z,0.30
2023-03-11T03:28:25.459Z,0.40
2023-03-11T03:30:53.118Z,0.40
2023-03-11T03:33:20.483Z,0.40
2023-03-11T03:35:48.117Z,0.30
2023-03-11T03:38:15.755Z,0.28
2023-03-11T03:40:46.260Z,0.20
2023-03-11T03:43:13.654Z,0.30
2023-03-11T03:45:41.401Z,0.30
2023-03-11T03:48:08.826Z,0.25
2023-03-11T03:50:36.457Z,0.40
2023-03-11T03:53:03.754Z,0.30
2023-03-11T03:55:31.369Z,0.30
2023-03-11T03:57:58.924Z,0.20
2023-03-11T04:00:26.549Z,0.30
2023-03-11T04:02:53.868Z,0.13
2023-03-11T04:05:21.570Z,0.20
2023-03-11T04:07:48.928Z,0.10
2023-03-11T04:10:16.678Z,0.20
2023-03-11T04:12:44.265Z,0.10
2023-03-11T04:18:25.584Z,0.20
2023-03-11T04:24:08.434Z,0.20
2023-03-11T04:26:36.124Z,0.20
2023-03-11T04:29:03.482Z,0.20
2023-03-11T04:31:31.129Z,0.28
2023-03-11T04:33:58.454Z,0.20
2023-03-11T04:36:26.085Z,0.30
2023-03-11T04:38:56.068Z,0.30
2023-03-11T04:41:23.818Z,0.22
2023-03-11T04:43:51.149Z,0.20
2023-03-11T04:46:18.784Z,0.20
2023-03-11T04:48:46.288Z,0.20
2023-03-11T04:51:13.983Z,0.25
2023-03-11T04:53:41.341Z,0.40
2023-03-11T04:56:14.976Z,0.22
2023-03-11T04:58:42.375Z,0.28
2023-03-11T05:01:10.042Z,0.40
2023-03-11T05:03:37.482Z,0.30
2023-03-11T05:06:05.362Z,0.28
2023-03-11T05:08:32.849Z,0.50
2023-03-11T05:11:00.609Z,0.50
2023-03-11T05:13:28.061Z,0.40
2023-03-11T05:15:55.871Z,0.60
2023-03-11T05:18:23.345Z,0.30
2023-03-11T05:20:51.078Z,0.43
2023-03-11T05:23:18.426Z,0.60
2023-03-11T05:25:46.084Z,0.70
2023-03-11T05:28:13.434Z,0.57
2023-03-11T05:30:41.058Z,0.80
2023-03-11T05:33:08.479Z,0.30
2023-03-11T05:35:36.128Z,0.70
2023-03-11T05:38:03.505Z,0.50
2023-03-11T05:40:31.169Z,0.70
2023-03-11T05:42:58.559Z,0.65
2023-03-11T05:45:26.349Z,0.60
2023-03-11T05:47:53.661Z,0.57
2023-03-11T05:50:21.355Z,0.60
2023-03-11T05:52:48.828Z,0.80
2023-03-11T05:55:16.454Z,0.77
2023-03-11T05:57:43.759Z,1.10
2023-03-11T06:00:11.668Z,1.02
2023-03-11T06:02:40.276Z,0.98
2023-03-11T06:05:09.036Z,0.88
2023-03-11T06:07:37.056Z,1.10
2023-03-11T06:10:05.055Z,1.35
2023-03-11T06:12:33.897Z,1.30
2023-03-11T06:15:01.564Z,1.73
2023-03-11T06:17:31.056Z,1.80
2023-03-11T06:19:59.481Z,1.48
2023-03-11T06:22:27.052Z,1.30
2023-03-11T06:24:56.288Z,1.20
2023-03-11T06:27:23.633Z,1.60
2023-03-11T06:29:54.588Z,1.38
2023-03-11T06:32:21.956Z,1.90
2023-03-11T06:34:50.577Z,1.75
2023-03-11T06:37:24.005Z,1.90
2023-03-11T06:39:52.231Z,1.50
2023-03-11T06:42:19.892Z,1.77
2023-03-11T06:44:50.969Z,1.40
2023-03-11T06:47:18.472Z,1.98
2023-03-11T06:49:46.685Z,2.10
2023-03-11T06:52:14.072Z,2.10
2023-03-11T06:54:41.738Z,2.08
2023-03-11T06:57:09.521Z,2.17
2023-03-11T06:59:37.246Z,2.40
2023-03-11T07:05:36.756Z,1.52
2023-03-11T07:11:36.145Z,1.88
2023-03-11T07:14:03.786Z,1.83
2023-03-11T07:16:31.804Z,1.75
2023-03-11T07:19:00.542Z,1.65
2023-03-11T07:21:28.416Z,1.65
2023-03-11T07:23:56.986Z,1.52
2023-03-11T07:26:25.068Z,2.10
2023-03-11T07:28:54.163Z,2.10
2023-03-11T07:31:23.675Z,1.90
2023-03-11T07:33:51.586Z,2.38
2023-03-11T07:36:20.493Z,1.98
2023-03-11T07:38:48.370Z,1.60
2023-03-11T07:41:16.225Z,2.05
2023-03-11T07:43:44.354Z,1.70
2023-03-11T07:46:34.275Z,1.80
2023-03-11T07:49:02.239Z,2.20
2023-03-11T07:51:30.740Z,2.20
2023-03-11T07:53:59.160Z,2.70
2023-03-11T07:56:28.168Z,2.22
2023-03-11T07:58:57.086Z,1.85
2023-03-11T08:01:25.818Z,1.95
2023-03-11T08:03:54.149Z,2.05
2023-03-11T08:06:23.238Z,2.20
2023-03-11T08:08:50.855Z,2.72
2023-03-11T08:11:19.021Z,1.92
2023-03-11T08:13:47.369Z,1.98
2023-03-11T08:16:15.666Z,2.17
2023-03-11T08:18:44.062Z,2.42
2023-03-11T08:21:12.764Z,1.67
2023-03-11T08:23:40.658Z,2.10
2023-03-11T08:26:08.655Z,2.28
2023-03-11T08:28:36.791Z,2.10
2023-03-11T08:31:11.886Z,2.92
2023-03-11T08:33:39.787Z,2.50
2023-03-11T08:36:09.476Z,2.45
2023-03-11T08:38:38.517Z,2.20
2023-03-11T08:41:06.154Z,1.85
2023-03-11T08:43:34.077Z,2.00
2023-03-11T08:46:02.633Z,2.40
2023-03-11T08:48:48.072Z,2.47
2023-03-11T08:51:15.716Z,1.85
2023-03-11T08:53:43.427Z,2.38
2023-03-11T08:56:10.985Z,1.98
2023-03-11T08:58:38.861Z,2.95
2023-03-11T09:01:06.861Z,1.67
2023-03-11T09:03:35.325Z,1.83
2023-03-11T09:06:04.266Z,1.88
2023-03-11T09:08:32.013Z,1.85
2023-03-11T09:10:59.615Z,1.50
2023-03-11T09:13:27.668Z,1.90
2023-03-11T09:15:55.199Z,1.67
2023-03-11T09:18:22.936Z,1.75
2023-03-11T09:20:50.885Z,1.85
2023-03-11T09:23:18.648Z,1.65
2023-03-11T09:25:46.133Z,1.77
2023-03-11T09:28:13.798Z,1.30
2023-03-11T09:30:41.378Z,1.63
2023-03-11T09:33:09.217Z,2.10
2023-03-11T09:35:38.206Z,1.33
2023-03-11T09:38:06.023Z,1.80
2023-03-11T09:40:47.279Z,1.75
2023-03-11T09:43:22.428Z,1.10
2023-03-11T09:46:05.707Z,1.33
2023-03-11T09:48:53.836Z,0.98
2023-03-11T09:51:43.188Z,1.25
2023-03-11T09:54:11.550Z,1.08
2023-03-11T09:56:55.514Z,1.10
2023-03-11T09:59:30.313Z,1.30
2023-03-11T10:01:58.512Z,1.38
2023-03-11T10:04:32.052Z,0.90
2023-03-11T10:07:01.231Z,1.10
2023-03-11T10:16:29.248Z,2.03
2023-03-11T10:19:13.776Z,2.03
2023-03-11T10:21:41.446Z,2.00
2023-03-11T10:24:27.692Z,1.45
2023-03-11T10:27:00.545Z,2.00
2023-03-11T10:36:12.571Z,2.08
2023-03-11T10:39:14.276Z,1.83
2023-03-11T10:41:49.835Z,2.00
2023-03-11T10:47:33.270Z,1.20
2023-03-11T10:50:01.065Z,1.92
2023-03-11T10:55:49.866Z,1.30
2023-03-11T11:01:56.473Z,1.80
2023-03-11T11:04:32.957Z,1.50
2023-03-11T11:07:19.476Z,1.55
2023-03-11T11:19:31.535Z,1.70
2023-03-11T11:25:25.023Z,1.55
2023-03-11T11:28:07.075Z,1.30
2023-03-11T11:30:34.638Z,2.15
2023-03-11T11:33:21.018Z,1.33
2023-03-11T11:35:50.401Z,1.98
2023-03-11T11:38:18.222Z,1.98
2023-03-11T11:44:01.194Z,1.70
2023-03-11T11:46:33.694Z,1.88
2023-03-11T11:49:19.547Z,1.88
2023-03-11T11:51:48.784Z,1.92
2023-03-11T11:54:18.113Z,1.90
2023-03-11T11:56:45.608Z,1.83
2023-03-11T11:59:18.324Z,1.88
2023-03-11T12:05:07.494Z,2.10
2023-03-11T12:07:40.801Z,1.67
2023-03-11T12:10:27.928Z,1.98
2023-03-11T12:12:55.284Z,2.08
2023-03-11T12:15:32.235Z,1.52
2023-03-11T12:18:04.965Z,1.45
2023-03-11T12:20:37.515Z,1.92
2023-03-11T12:23:27.843Z,1.83
2023-03-11T12:25:55.412Z,2.03
2023-03-11T12:28:28.699Z,1.88
2023-03-11T12:31:01.318Z,2.03
2023-03-11T12:33:37.215Z,1.75
2023-03-11T12:36:24.547Z,1.30
2023-03-11T12:38:53.122Z,1.20
2023-03-11T12:41:26.599Z,1.15
2023-03-11T12:43:53.892Z,1.25
2023-03-11T12:46:22.039Z,1.33
2023-03-11T12:48:52.475Z,1.30
2023-03-11T12:51:26.136Z,1.42
2023-03-11T12:53:54.123Z,1.35
2023-03-11T12:56:21.918Z,1.20
2023-03-11T12:58:57.679Z,1.35
2023-03-11T13:01:51.687Z,1.88
2023-03-11T13:04:21.881Z,1.50
2023-03-11T13:07:02.699Z,1.45
2023-03-11T13:09:31.545Z,1.83
2023-03-11T13:11:59.518Z,1.65
2023-03-11T13:14:31.084Z,2.38
2023-03-11T13:17:17.172Z,2.10
2023-03-11T13:19:48.654Z,2.58
2023-03-11T13:22:34.901Z,2.63
2023-03-11T13:25:19.782Z,1.95
2023-03-11T13:27:51.791Z,3.15
2023-03-11T13:30:34.467Z,2.00
2023-03-11T13:33:08.010Z,2.30
2023-03-11T13:35:35.384Z,2.35
2023-03-11T13:38:21.556Z,2.08
2023-03-11T13:40:49.262Z,2.20
2023-03-11T13:46:26.920Z,2.53
2023-03-11T13:49:01.694Z,2.60
2023-03-11T13:51:29.145Z,2.40
2023-03-11T13:53:59.703Z,2.60
2023-03-11T13:56:28.900Z,2.30
2023-03-11T14:02:20.437Z,1.60
2023-03-11T14:04:53.302Z,1.98
2023-03-11T14:07:28.671Z,1.98
2023-03-11T14:10:11.437Z,1.88
2023-03-11T14:12:39.282Z,1.40
2023-03-11T14:15:14.508Z,1.55
2023-03-11T14:17:42.445Z,1.42
2023-03-11T14:20:16.283Z,2.08
2023-03-11T14:22:47.593Z,1.88
2023-03-11T14:25:25.446Z,1.80
2023-03-11T14:27:56.989Z,2.40
2023-03-11T14:33:54.037Z,1.42
2023-03-11T14:36:21.977Z,1.45
2023-03-11T14:38:49.290Z,1.85
2023-03-11T14:41:16.946Z,1.42
2023-03-11T14:43:46.402Z,1.75
2023-03-11T14:46:18.677Z,2.28
2023-03-11T14:48:46.146Z,1.90
2023-03-11T14:51:16.512Z,2.38
2023-03-11T14:53:51.051Z,2.30
2023-03-11T14:56:20.238Z,1.85
2023-03-11T14:59:06.944Z,1.75
2023-03-11T15:01:38.200Z,1.80
2023-03-11T15:04:10.994Z,1.88
2023-03-11T15:06:40.438Z,1.77
2023-03-11T15:09:07.793Z,1.90
2023-03-11T15:11:54.684Z,1.85
2023-03-11T15:14:29.147Z,1.77
2023-03-11T15:17:11.694Z,2.40
2023-03-11T15:19:40.734Z,1.80
2023-03-11T15:22:37.807Z,2.22
2023-03-11T15:25:15.785Z,1.58
2023-03-11T15:27:43.669Z,1.88
2023-03-11T15:30:17.227Z,2.22
2023-03-11T15:32:45.128Z,1.60
2023-03-11T15:35:14.317Z,1.50
2023-03-11T15:37:42.537Z,1.83
2023-03-11T15:40:12.766Z,2.08
2023-03-11T15:42:40.417Z,1.58
2023-03-11T15:45:13.230Z,1.92
2023-03-11T15:47:40.999Z,1.77
2023-03-11T15:53:30.220Z,1.77
2023-03-11T15:59:01.502Z,1.73
2023-03-11T16:01:29.749Z,1.42
2023-03-11T16:03:57.460Z,1.90
2023-03-11T16:06:24.988Z,1.30
2023-03-11T16:08:52.632Z,1.60
2023-03-11T16:11:20.120Z,1.40
2023-03-11T16:13:47.843Z,1.50
2023-03-11T16:16:16.465Z,1.50
2023-03-11T16:18:44.748Z,1.52
2023-03-11T16:21:16.762Z,2.10
2023-03-11T16:29:34.400Z,1.55
2023-03-11T16:32:01.793Z,1.98
2023-03-11T16:34:29.468Z,1.77
2023-03-11T16:36:56.917Z,1.92
2023-03-11T16:39:24.709Z,2.15
2023-03-11T16:41:52.208Z,2.22
2023-03-11T16:44:19.831Z,1.92
2023-03-11T16:46:47.416Z,1.48
2023-03-11T16:49:15.106Z,2.15
2023-03-11T16:51:42.445Z,1.52
2023-03-11T16:54:10.229Z,1.95
2023-03-11T16:56:39.708Z,1.75
2023-03-11T16:59:08.839Z,1.98
2023-03-11T17:01:38.430Z,1.70
2023-03-11T17:04:06.465Z,1.55
2023-03-11T17:10:02.777Z,2.22
2023-03-11T17:12:30.234Z,1.63
2023-03-11T17:14:57.950Z,2.05
2023-03-11T17:17:25.514Z,1.60
2023-03-11T17:19:53.266Z,1.73
2023-03-11T17:22:20.620Z,1.63
2023-03-11T17:24:48.344Z,2.05
2023-03-11T17:27:15.864Z,1.20
2023-03-11T17:29:43.627Z,1.35
2023-03-11T17:32:10.993Z,1.58
2023-03-11T17:34:38.635Z,1.33
2023-03-11T17:37:06.018Z,2.10
2023-03-11T17:39:33.755Z,1.65
2023-03-11T17:42:01.213Z,2.22
2023-03-11T17:44:37.813Z,2.03
2023-03-11T17:47:12.103Z,1.92
2023-03-11T17:49:40.085Z,1.95
2023-03-11T17:52:07.511Z,1.92
2023-03-11T17:54:35.280Z,1.88
2023-03-11T17:57:02.730Z,2.10
2023-03-11T17:59:30.375Z,2.08
2023-03-11T18:01:58.041Z,2.55
2023-03-11T18:04:25.832Z,2.30
2023-03-11T18:06:57.997Z,2.70
2023-03-11T18:11:52.732Z,1.63
2023-03-11T18:14:20.470Z,2.53
2023-03-11T18:16:47.968Z,3.13
2023-03-11T18:19:16.239Z,3.45
2023-03-11T18:21:43.768Z,3.00
2023-03-11T18:24:11.640Z,2.88
2023-03-11T18:26:39.195Z,3.13
2023-03-11T18:29:06.949Z,3.05
2023-03-11T18:31:34.423Z,3.38
2023-03-11T18:34:03.593Z,2.70
2023-03-11T18:36:32.510Z,2.47
2023-03-11T18:39:03.887Z,2.70
2023-03-11T18:41:32.750Z,3.28
2023-03-11T18:44:00.750Z,2.88
2023-03-11T18:46:29.521Z,2.92
2023-03-11T18:48:57.811Z,2.92
2023-03-11T18:51:26.446Z,2.78
2023-03-11T18:53:54.872Z,3.45
2023-03-11T18:56:28.472Z,3.40
2023-03-11T18:58:58.090Z,3.88
2023-03-11T19:01:40.989Z,3.00
2023-03-11T19:04:39.328Z,3.40
2023-03-11T19:07:14.595Z,3.30
2023-03-11T19:09:48.624Z,3.50
2023-03-11T19:12:47.681Z,3.45
2023-03-11T19:15:21.334Z,3.95
2023-03-11T19:18:07.301Z,3.55
2023-03-11T19:20:43.406Z,4.22
2023-03-11T19:23:10.872Z,4.57
2023-03-11T19:25:38.660Z,4.03
2023-03-11T19:28:06.151Z,4.38
2023-03-11T19:30:34.283Z,4.32
2023-03-11T19:33:01.679Z,4.30
2023-03-11T19:35:29.278Z,4.38
2023-03-11T19:37:57.482Z,4.75
2023-03-11T19:40:27.696Z,5.00
2023-03-11T19:42:55.317Z,4.55
2023-03-11T19:45:23.071Z,4.28
2023-03-11T19:47:50.542Z,4.68
2023-03-11T19:50:18.869Z,4.25
2023-03-11T19:53:03.434Z,4.60
2023-03-11T19:55:31.128Z,4.57
2023-03-11T19:57:58.533Z,4.82
2023-03-11T20:00:26.291Z,4.57
2023-03-11T20:02:54.504Z,4.10
2023-03-11T20:05:22.533Z,4.65
2023-03-11T20:07:49.949Z,4.30
2023-03-11T20:10:40.110Z,4.25
2023-03-11T20:13:07.724Z,4.18
2023-03-11T20:15:35.700Z,5.03
2023-03-11T20:18:03.575Z,4.22
2023-03-11T20:20:31.833Z,4.22
2023-03-11T20:23:02.083Z,3.97
2023-03-11T20:25:31.157Z,4.32
2023-03-11T20:27:59.146Z,4.38
2023-03-11T20:30:27.069Z,4.70
2023-03-11T20:32:54.700Z,4.47
2023-03-11T20:35:23.269Z,4.18
2023-03-11T20:37:51.418Z,4.22
2023-03-11T20:40:19.439Z,4.88
2023-03-11T20:42:47.334Z,4.45
2023-03-11T20:45:17.073Z,4.60
2023-03-11T20:47:48.060Z,4.82
2023-03-11T20:50:21.876Z,4.25
2023-03-11T20:52:50.592Z,5.25
2023-03-11T20:55:18.692Z,4.72
2023-03-11T20:57:46.143Z,4.47
2023-03-11T21:00:14.156Z,4.00
2023-03-11T21:02:43.057Z,4.30
2023-03-11T21:05:12.903Z,4.05
2023-03-11T21:07:40.772Z,4.53
2023-03-11T21:10:10.429Z,4.60
2023-03-11T21:12:37.911Z,4.70
2023-03-11T21:15:06.901Z,4.72
2023-03-11T21:17:38.218Z,4.20
2023-03-11T21:20:10.052Z,4.50
2023-03-11T21:22:37.916Z,3.75
2023-03-11T21:25:29.681Z,4.28
2023-03-11T21:28:18.186Z,4.43
2023-03-11T21:30:45.983Z,4.47
2023-03-11T21:33:13.609Z,4.13
2023-03-11T21:35:41.499Z,4.18
2023-03-11T21:38:09.116Z,3.90
2023-03-11T21:40:36.980Z,4.18
2023-03-11T21:43:04.375Z,4.28
2023-03-11T21:45:33.397Z,3.85
2023-03-11T21:48:00.933Z,4.57
2023-03-11T21:50:28.643Z,5.15
2023-03-11T21:52:56.022Z,4.82
2023-03-11T21:55:23.728Z,5.22
2023-03-11T21:57:51.172Z,3.90
2023-03-11T22:00:18.949Z,4.57
2023-03-11T22:02:46.352Z,4.65
2023-03-11T22:05:27.015Z,5.60
2023-03-11T22:07:54.457Z,4.57
2023-03-11T22:10:22.194Z,5.13
2023-03-11T22:12:49.558Z,5.25
2023-03-11T22:15:17.369Z,5.80
2023-03-11T22:17:44.828Z,4.63
2023-03-11T22:20:17.070Z,4.03
2023-03-11T22:22:44.449Z,4.80
2023-03-11T22:25:21.829Z,4.75
2023-03-11T22:27:52.097Z,3.72
2023-03-11T22:30:19.808Z,4.57
2023-03-11T22:36:19.877Z,4.22
2023-03-11T22:38:53.498Z,4.75
2023-03-11T22:41:35.134Z,4.07
2023-03-11T22:44:02.703Z,4.65
2023-03-11T22:46:30.320Z,4.88
2023-03-11T22:49:23.198Z,5.38
2023-03-11T22:51:50.504Z,5.20
2023-03-11T22:54:18.177Z,4.50
2023-03-11T22:56:45.534Z,5.28
2023-03-11T22:59:13.145Z,5.60
2023-03-11T23:01:43.201Z,5.70
2023-03-11T23:04:10.918Z,6.18
2023-03-11T23:06:41.131Z,5.57
2023-03-11T23:09:09.042Z,4.25
2023-03-11T23:11:36.357Z,5.50
2023-03-11T23:17:17.569Z,4.55
2023-03-11T23:19:45.197Z,5.75
2023-03-11T23:25:16.501Z,3.95
2023-03-11T23:30:54.010Z,4.93
2023-03-11T23:33:21.327Z,5.18
2023-03-11T23:35:48.978Z,4.60
2023-03-11T23:38:16.310Z,4.13
2023-03-11T23:40:43.904Z,5.15
2023-03-11T23:43:11.232Z,4.38
2023-03-11T23:45:38.850Z,3.28
2023-03-11T23:48:06.347Z,3.33
2023-03-11T23:50:33.966Z,4.20
2023-03-11T23:53:01.302Z,4.45
2023-03-11T23:55:31.690Z,4.18
2023-03-11T23:57:59.026Z,4.18
